Ottawa, IL (61350)

5:06 AM CST on February 28, 2017 (GMT -0600)
Desoto St., Center/North Ottawa IL | | Change Station

Elev 497 ft 41.36 °N, 88.84 °W | Updated 1 minute ago

Overcast
Overcast
49.6 °F
Feels Like 50 °F
N
1.0
Wind Variable Wind from WSW
Gusts 1.0 mph

Today
High -- | Low -- °F
--% Chance of Precip.
Yesterday
High -- | Low -- °F
Precip. -- in
Pressure 29.86 in
Visibility 10.0 miles
Clouds Mostly Cloudy 1400 ft
Overcast 2500 ft
Windchill 50 °F
Dew Point 46 °F
Humidity 89%
Rainfall 0.05 in
Snow Depth Not available.
6:30 AM 5:45 PM
Waxing Crescent, 4% visible
METAR KVYS 281055Z AUTO 19008KT 10SM BKN014 OVC025 09/07 A2986 RMK AO2 LTG DSNT S T00900073
Pressure 29.86 in
Visibility 10.0 miles
Clouds Mostly Cloudy 1400 ft
Overcast 2500 ft
Windchill 50 °F
Dew Point 46 °F
Humidity 89%
Rainfall 0.05 in
Snow Depth Not available.
6:30 AM 5:45 PM
Waxing Crescent, 4% visible
METAR KVYS 281055Z AUTO 19008KT 10SM BKN014 OVC025 09/07 A2986 RMK AO2 LTG DSNT S T00900073

Get Your Daily Forecast Email!

Thanks for signing up!

Be on the lookout for a verification email in your inbox.

You'll start receiving the daily forecast at 8 AM.

×

10-Day Weather Forecast

Almanac

Astronomy

Feb. 28, 2017 Rise Set
Actual Time
Civil Twilight
Nautical Twilight
Astronomical Twilight
Moon
Length of Visible Light
Length of Day
Tomorrow will be .
, % of the Moon is Illuminated

Today's Extremes

State Highs State Lows

Community

WunderPhotos

Upload Photos

1,962,540 photos uploaded!

WunderBlog® & News

Nearby

Air Quality

  Air Quality AQ Index Pollutant
Not available.

Snow Depth

Station Depth Elevation

Earthquake Activity

City Distance Mag. Time & Date
Minimum magnitude displayed is 2.5.

Coastal Water Temperatures

Place Temperature

Stations

Nearby Weather Stations

Station Location Temp. Windchill Dew Point Humidity Wind Precip. Elev Updated Type
                   

Watches & Warnings

There are currently no watches in effect.